Time;durP1;ratioP1;P1;durP2;ratioP2;P2;SDS_P1;SDS_P2;PMS_P1;PMS_P2;Temp;Humidity;BMP_temperature;BMP_pressure;BME280_temperature;BME280_humidity;BME280_pressure;Samples;Min_cycle;Max_cycle;Signal;HPM_P1;HPM_P2
2022/02/23 00:01:05;;;;;;;20.15;2.75;;;;;;;9.24;61.56;102301.75;4747417;29;20082;-54
2022/02/23 00:03:31;;;;;;;18.52;2.70;;;;;;;9.28;61.88;102308.84;4757996;29;20047;-52
2022/02/23 00:05:56;;;;;;;15.50;2.75;;;;;;;9.27;61.80;102307.06;4758770;29;20158;-52
2022/02/23 00:08:22;;;;;;;19.73;3.17;;;;;;;9.25;61.91;102305.25;4751563;29;20114;-51
2022/02/23 00:10:47;;;;;;;15.85;2.63;;;;;;;9.30;61.50;102303.69;4756881;29;20455;-52
2022/02/23 00:13:12;;;;;;;14.20;2.78;;;;;;;9.30;61.35;102315.00;4746936;29;20954;-52
2022/02/23 00:15:38;;;;;;;18.30;2.72;;;;;;;9.25;61.17;102323.44;4753390;29;20503;-55
2022/02/23 00:18:03;;;;;;;12.95;2.58;;;;;;;9.24;61.49;102319.97;4758761;29;20051;-53
2022/02/23 00:20:28;;;;;;;16.08;2.65;;;;;;;9.23;61.66;102339.00;4753149;29;20051;-54
2022/02/23 00:22:57;;;;;;;13.85;2.35;;;;;;;9.15;61.85;102340.38;4746985;29;20541;-58
2022/02/23 00:25:22;;;;;;;15.85;2.50;;;;;;;9.14;61.85;102337.72;4754807;29;20066;-54
2022/02/23 00:27:47;;;;;;;18.83;2.53;;;;;;;9.07;62.07;102339.19;4748946;29;20415;-54
2022/02/23 00:30:13;;;;;;;17.52;2.45;;;;;;;9.10;62.08;102352.31;4755064;29;20062;-53
2022/02/23 00:32:38;;;;;;;19.27;2.15;;;;;;;9.19;61.97;102347.50;4758730;29;20043;-55
2022/02/23 00:35:04;;;;;;;13.63;2.28;;;;;;;9.24;61.65;102351.19;4750006;29;20052;-55
2022/02/23 00:37:30;;;;;;;15.02;2.63;;;;;;;9.21;61.82;102348.44;4751331;29;20204;-51
2022/02/23 00:39:55;;;;;;;17.50;2.63;;;;;;;9.20;61.88;102353.59;4753440;29;20062;-52
2022/02/23 00:42:20;;;;;;;16.42;3.08;;;;;;;9.16;61.55;102349.06;4756288;29;20051;-53
2022/02/23 00:44:46;;;;;;;16.30;2.33;;;;;;;9.18;61.40;102347.44;4754151;29;20048;-53
2022/02/23 00:47:11;;;;;;;17.92;2.53;;;;;;;9.13;61.89;102354.16;4749946;29;20146;-54
2022/02/23 00:49:37;;;;;;;18.20;2.33;;;;;;;9.12;61.63;102353.28;4754799;29;20438;-55
2022/02/23 00:52:05;;;;;;;14.40;2.35;;;;;;;9.11;61.63;102351.47;4755781;29;20039;-54
2022/02/23 00:54:31;;;;;;;20.63;2.40;;;;;;;9.07;61.65;102353.91;4754024;29;20059;-53
2022/02/23 00:56:56;;;;;;;18.50;2.40;;;;;;;9.00;61.75;102344.03;4749430;29;20438;-52
2022/02/23 00:59:22;;;;;;;18.65;2.55;;;;;;;9.03;61.27;102351.97;4755696;29;20520;-55
2022/02/23 01:01:47;;;;;;;16.13;2.65;;;;;;;9.00;61.14;102350.13;4754238;29;20055;-54
2022/02/23 01:04:12;;;;;;;12.75;2.22;;;;;;;8.95;61.51;102354.25;4753202;29;20549;-55
2022/02/23 01:06:38;;;;;;;15.77;2.70;;;;;;;8.94;61.60;102363.78;4744649;29;20031;-53
2022/02/23 01:09:03;;;;;;;15.32;2.75;;;;;;;8.96;61.47;102363.84;4748549;29;21011;-51
2022/02/23 01:11:29;;;;;;;13.88;2.05;;;;;;;8.89;62.08;102362.69;4753202;29;20165;-52
2022/02/23 01:13:54;;;;;;;16.45;2.38;;;;;;;8.84;62.10;102364.16;4746566;29;20085;-51
2022/02/23 01:16:20;;;;;;;15.00;2.00;;;;;;;8.80;62.45;102370.06;4756148;29;20059;-56
2022/02/23 01:18:46;;;;;;;12.82;2.05;;;;;;;8.87;62.32;102379.03;4751590;29;20047;-51
2022/02/23 01:21:12;;;;;;;22.08;2.83;;;;;;;8.82;62.52;102378.84;4749239;29;20062;-50
2022/02/23 01:23:38;;;;;;;16.70;2.42;;;;;;;8.86;62.56;102377.25;4750653;29;20221;-53
2022/02/23 01:26:04;;;;;;;16.50;2.65;;;;;;;8.83;62.85;102388.44;4754556;29;20039;-52
2022/02/23 01:28:30;;;;;;;15.10;2.20;;;;;;;8.88;63.03;102396.41;4756607;29;20051;-52
2022/02/23 01:30:56;;;;;;;11.60;2.13;;;;;;;8.84;62.91;102390.19;4750109;29;20534;-53
2022/02/23 01:33:21;;;;;;;11.55;2.20;;;;;;;8.77;63.14;102395.06;4743353;29;20131;-52
2022/02/23 01:35:47;;;;;;;18.33;2.22;;;;;;;8.73;63.66;102394.00;4755190;29;20450;-55
2022/02/23 01:38:13;;;;;;;13.40;2.03;;;;;;;8.72;63.80;102402.63;4754608;29;20622;-54
2022/02/23 01:40:39;;;;;;;17.13;2.88;;;;;;;8.68;64.18;102405.03;4756062;29;20402;-51
2022/02/23 01:43:06;;;;;;;19.15;2.60;;;;;;;8.70;64.06;102409.50;4748712;29;20602;-54
2022/02/23 01:45:31;;;;;;;14.63;2.45;;;;;;;8.65;63.94;102410.09;4757281;29;20501;-50
2022/02/23 01:47:56;;;;;;;18.75;2.60;;;;;;;8.63;64.13;102415.22;4754534;29;20039;-53
2022/02/23 01:50:22;;;;;;;14.10;2.22;;;;;;;8.62;64.27;102418.63;4772265;29;20555;-50
2022/02/23 01:52:47;;;;;;;15.43;2.70;;;;;;;8.61;64.43;102419.47;4753526;29;20044;-53
2022/02/23 01:55:13;;;;;;;13.48;2.63;;;;;;;8.66;64.20;102417.09;4746945;29;20115;-51
2022/02/23 01:57:39;;;;;;;14.70;2.40;;;;;;;8.65;64.00;102410.09;4753875;29;20066;-52
2022/02/23 02:00:08;;;;;;;17.30;2.53;;;;;;;8.68;64.52;102421.53;4757270;29;20362;-54
2022/02/23 02:02:34;;;;;;;16.02;2.50;;;;;;;8.60;64.13;102425.47;4753064;29;20094;-53
2022/02/23 02:05:01;;;;;;;16.15;2.75;;;;;;;8.69;64.14;102427.63;4763282;29;20395;-51
2022/02/23 02:07:27;;;;;;;18.08;2.88;;;;;;;8.62;64.24;102435.94;4746821;29;20059;-54
2022/02/23 02:09:52;;;;;;;17.15;3.30;;;;;;;8.67;64.14;102442.25;4755155;29;20055;-55
2022/02/23 02:12:17;;;;;;;17.45;2.75;;;;;;;8.67;64.06;102437.94;4756856;29;20057;-57
2022/02/23 02:14:43;;;;;;;16.00;2.88;;;;;;;8.61;64.23;102448.06;4752515;29;20120;-52
2022/02/23 02:17:09;;;;;;;20.25;2.65;;;;;;;8.63;64.62;102445.53;4752196;29;20344;-51
2022/02/23 02:19:34;;;;;;;12.77;2.40;;;;;;;8.62;64.44;102446.34;4750950;29;20050;-53
2022/02/23 02:22:04;;;;;;;16.35;2.83;;;;;;;8.55;64.83;102450.38;4755042;29;20047;-53
2022/02/23 02:24:37;;;;;;;16.75;2.67;;;;;;;8.57;64.88;102443.53;4753846;29;20043;-53
2022/02/23 02:27:06;;;;;;;18.92;2.70;;;;;;;8.46;64.66;102450.84;4747640;29;20194;-52
2022/02/23 02:29:32;;;;;;;17.38;2.58;;;;;;;8.53;64.60;102445.13;4754954;29;20717;-54
2022/02/23 02:31:58;;;;;;;19.17;2.80;;;;;;;8.45;65.36;102442.97;4750258;29;20048;-52
2022/02/23 02:34:24;;;;;;;16.58;2.50;;;;;;;8.36;65.39;102446.00;4754934;29;20526;-54
2022/02/23 02:36:50;;;;;;;15.68;2.58;;;;;;;8.34;65.66;102447.69;4754249;29;20519;-54
2022/02/23 02:39:17;;;;;;;17.10;2.47;;;;;;;8.35;65.56;102449.47;4737171;29;20901;-55
2022/02/23 02:41:43;;;;;;;15.65;2.85;;;;;;;8.38;65.63;102446.09;4750249;29;20051;-56
2022/02/23 02:44:09;;;;;;;12.88;2.47;;;;;;;8.27;65.60;102445.56;4753535;29;20054;-52
2022/02/23 02:46:34;;;;;;;11.57;2.45;;;;;;;8.26;65.70;102443.78;4748612;29;20522;-51
2022/02/23 02:48:59;;;;;;;15.13;2.63;;;;;;;8.17;65.99;102445.94;4746785;29;20051;-51
2022/02/23 02:51:25;;;;;;;14.65;2.50;;;;;;;8.22;66.17;102448.75;4748971;29;20046;-54
2022/02/23 02:53:51;;;;;;;15.98;2.92;;;;;;;8.29;65.56;102453.44;4756508;29;20055;-51
2022/02/23 02:56:17;;;;;;;16.20;2.70;;;;;;;8.29;65.49;102454.34;4753185;29;20047;-54
2022/02/23 02:58:42;;;;;;;12.32;2.55;;;;;;;8.20;65.64;102448.69;4746863;29;20047;-54
2022/02/23 03:01:09;;;;;;;17.98;2.80;;;;;;;8.20;65.93;102464.28;4745994;29;20343;-55
2022/02/23 03:03:34;;;;;;;16.55;2.60;;;;;;;8.14;65.82;102463.97;4751566;29;20288;-55
2022/02/23 03:06:00;;;;;;;19.23;2.55;;;;;;;8.18;65.98;102465.88;4754627;29;20057;-54
2022/02/23 03:08:28;;;;;;;16.30;2.42;;;;;;;8.04;65.99;102470.44;4749339;29;20059;-54
2022/02/23 03:10:54;;;;;;;20.73;2.50;;;;;;;8.08;66.00;102467.16;4746303;29;20055;-59
2022/02/23 03:13:19;;;;;;;16.83;2.53;;;;;;;8.04;66.44;102466.94;4750907;29;20090;-53
2022/02/23 03:15:46;;;;;;;17.13;2.47;;;;;;;7.94;66.69;102477.69;4754769;29;20043;-52
2022/02/23 03:18:11;;;;;;;17.75;2.75;;;;;;;8.02;66.48;102478.97;4751478;29;20448;-53
2022/02/23 03:20:44;;;;;;;16.30;2.70;;;;;;;7.95;66.75;102476.88;4768321;29;20039;-54
2022/02/23 03:23:10;;;;;;;17.70;2.53;;;;;;;7.91;66.60;102485.34;4755660;29;20597;-55
2022/02/23 03:25:35;;;;;;;14.00;2.67;;;;;;;7.87;66.85;102492.06;4752286;29;20584;-54
2022/02/23 03:28:00;;;;;;;15.02;2.60;;;;;;;7.86;66.89;102487.72;4750766;29;20369;-51
2022/02/23 03:30:26;;;;;;;16.67;2.63;;;;;;;7.85;67.38;102490.22;4752598;29;20049;-54
2022/02/23 03:32:52;;;;;;;14.75;2.63;;;;;;;7.88;66.71;102490.34;4751680;29;20059;-53
2022/02/23 03:35:17;;;;;;;17.48;2.38;;;;;;;7.87;67.53;102488.59;4747721;29;20078;-52
2022/02/23 03:37:42;;;;;;;13.80;2.28;;;;;;;7.95;67.43;102489.84;4749860;29;20142;-51
2022/02/23 03:40:09;;;;;;;18.10;2.35;;;;;;;7.87;67.16;102488.59;4752327;29;20101;-54
2022/02/23 03:42:34;;;;;;;16.92;2.55;;;;;;;7.85;67.31;102490.22;4751338;29;20548;-53
2022/02/23 03:44:59;;;;;;;15.73;2.20;;;;;;;7.85;67.20;102492.81;4749184;29;20139;-55
2022/02/23 03:47:25;;;;;;;21.45;2.58;;;;;;;7.73;68.30;102493.09;4750630;29;20027;-50
2022/02/23 03:49:50;;;;;;;16.35;2.50;;;;;;;7.72;67.49;102492.19;4754000;29;20056;-56
2022/02/23 03:52:16;;;;;;;14.27;2.33;;;;;;;7.72;67.99;102496.50;4757474;29;20855;-51
2022/02/23 03:54:41;;;;;;;9.70;2.15;;;;;;;7.62;68.37;102495.13;4751546;29;20123;-54
2022/02/23 03:57:06;;;;;;;14.25;2.55;;;;;;;7.60;68.05;102490.69;4744435;29;20663;-52
2022/02/23 03:59:32;;;;;;;13.77;2.10;;;;;;;7.53;68.61;102497.28;4751250;29;20442;-52
2022/02/23 04:01:57;;;;;;;15.15;2.13;;;;;;;7.53;68.43;102505.06;4745659;29;20049;-52
2022/02/23 04:04:23;;;;;;;16.20;2.50;;;;;;;7.58;68.00;102507.88;4755078;29;20519;-51
2022/02/23 04:06:50;;;;;;;14.68;2.20;;;;;;;7.45;68.85;102503.75;4754155;29;20051;-54
2022/02/23 04:09:15;;;;;;;15.90;2.08;;;;;;;7.39;68.97;102502.53;4750182;29;20054;-53
2022/02/23 04:11:41;;;;;;;8.07;2.13;;;;;;;7.43;68.84;102496.72;4749750;29;20043;-53
2022/02/23 04:14:07;;;;;;;12.88;2.13;;;;;;;7.42;69.03;102511.41;4754952;29;20085;-51
2022/02/23 04:16:34;;;;;;;11.77;2.03;;;;;;;7.43;68.65;102509.69;4752131;29;20599;-53
2022/02/23 04:19:00;;;;;;;13.02;2.42;;;;;;;7.44;68.38;102519.28;4746408;29;20111;-54
2022/02/23 04:21:26;;;;;;;19.33;2.25;;;;;;;7.36;68.98;102524.06;4754488;29;20175;-54
2022/02/23 04:23:51;;;;;;;11.73;2.55;;;;;;;7.32;69.00;102519.50;4752752;29;20472;-53
2022/02/23 04:26:17;;;;;;;17.92;2.65;;;;;;;7.28;69.12;102521.03;4753911;29;20460;-50
2022/02/23 04:28:44;;;;;;;19.85;2.70;;;;;;;7.31;69.50;102522.91;4753437;29;20429;-53
2022/02/23 04:31:09;;;;;;;14.10;2.13;;;;;;;7.30;69.44;102524.63;4741238;29;20943;-54
2022/02/23 04:33:35;;;;;;;16.90;2.22;;;;;;;7.39;69.58;102519.00;4757412;29;20504;-54
2022/02/23 04:36:03;;;;;;;16.58;2.40;;;;;;;7.39;69.50;102521.59;4752994;29;20404;-51
2022/02/23 04:38:29;;;;;;;20.20;2.53;;;;;;;7.49;69.37;102520.41;4757675;29;20047;-52
2022/02/23 04:40:59;;;;;;;11.77;2.35;;;;;;;7.52;69.08;102523.13;4754829;29;20059;-54
2022/02/23 04:43:25;;;;;;;13.27;2.40;;;;;;;7.51;69.01;102527.44;4755791;29;20879;-52
2022/02/23 04:45:50;;;;;;;13.40;2.35;;;;;;;7.46;69.37;102530.59;4755106;29;20051;-52
2022/02/23 04:48:16;;;;;;;15.95;2.55;;;;;;;7.41;69.66;102530.38;4753549;29;20059;-53
2022/02/23 04:50:43;;;;;;;16.13;2.22;;;;;;;7.43;69.53;102520.97;4751124;29;20050;-54
2022/02/23 04:53:08;;;;;;;17.40;2.42;;;;;;;7.40;69.15;102525.97;4755666;29;20038;-55
2022/02/23 04:55:35;;;;;;;13.10;2.25;;;;;;;7.37;69.39;102522.34;4756336;29;20592;-55
2022/02/23 04:58:07;;;;;;;15.75;2.70;;;;;;;7.33;69.19;102529.97;4755088;29;20063;-51
2022/02/23 05:00:36;;;;;;;12.30;2.20;;;;;;;7.23;69.45;102527.69;4764301;29;20054;-51
2022/02/23 05:03:02;;;;;;;17.23;2.35;;;;;;;7.20;69.30;102531.81;4746185;29;20388;-56
2022/02/23 05:05:27;;;;;;;17.02;2.65;;;;;;;7.17;69.24;102529.97;4755712;29;20063;-54
2022/02/23 05:07:52;;;;;;;17.17;2.58;;;;;;;7.14;69.86;102539.25;4747699;29;20039;-53
2022/02/23 05:10:18;;;;;;;14.30;2.28;;;;;;;7.11;69.72;102540.00;4752448;29;20659;-55
2022/02/23 05:12:43;;;;;;;18.52;2.92;;;;;;;7.16;69.98;102535.97;4751835;29;20152;-55
2022/02/23 05:15:09;;;;;;;13.43;2.20;;;;;;;7.22;69.92;102540.56;4746230;29;20056;-56
2022/02/23 05:17:34;;;;;;;17.70;2.40;;;;;;;7.13;69.88;102538.41;4757196;29;20543;-53
2022/02/23 05:19:59;;;;;;;11.98;2.50;;;;;;;7.12;69.86;102548.69;4746594;29;20059;-54
2022/02/23 05:22:25;;;;;;;15.45;2.85;;;;;;;7.08;69.77;102547.59;4748774;29;20108;-53
2022/02/23 05:24:50;;;;;;;12.68;2.40;;;;;;;7.04;70.21;102547.38;4754761;29;20085;-52
2022/02/23 05:27:15;;;;;;;12.85;3.33;;;;;;;6.99;70.30;102554.00;4752664;29;20493;-51
2022/02/23 05:29:41;;;;;;;13.88;3.05;;;;;;;7.00;70.11;102551.50;4748974;29;20051;-55
2022/02/23 05:32:07;;;;;;;20.73;3.38;;;;;;;7.04;70.32;102556.03;4766840;29;20055;-54
2022/02/23 05:34:32;;;;;;;16.48;2.90;;;;;;;7.03;70.33;102551.66;4755154;29;20047;-54
2022/02/23 05:36:57;;;;;;;19.90;3.00;;;;;;;7.07;70.74;102557.94;4750006;29;20135;-54
2022/02/23 05:39:23;;;;;;;17.95;3.00;;;;;;;7.10;70.66;102555.47;4748566;29;20462;-54
2022/02/23 05:41:48;;;;;;;17.77;2.60;;;;;;;7.05;70.65;102559.53;4751283;29;20497;-52
2022/02/23 05:44:13;;;;;;;18.00;2.53;;;;;;;7.05;70.27;102560.44;4771801;29;20128;-54
2022/02/23 05:46:39;;;;;;;16.77;2.75;;;;;;;7.02;70.78;102557.66;4764152;29;20043;-52
2022/02/23 05:49:04;;;;;;;23.08;2.80;;;;;;;7.00;71.16;102561.00;4744530;29;20449;-53
2022/02/23 05:51:33;;;;;;;14.13;2.75;;;;;;;7.00;70.64;102566.19;4752142;29;20408;-51
2022/02/23 05:54:00;;;;;;;13.20;2.50;;;;;;;6.95;70.73;102570.22;4752697;29;20319;-55
2022/02/23 05:56:28;;;;;;;12.98;2.55;;;;;;;6.95;71.05;102559.84;4757803;29;20051;-53
2022/02/23 05:58:55;;;;;;;12.30;2.85;;;;;;;6.88;70.90;102558.63;4749567;29;20082;-54
2022/02/23 06:01:20;;;;;;;16.60;2.60;;;;;;;6.88;71.41;102564.69;4750990;29;20142;-54
2022/02/23 06:03:46;;;;;;;16.90;2.42;;;;;;;6.91;71.71;102562.25;4755017;29;20057;-54
2022/02/23 06:06:11;;;;;;;17.42;2.78;;;;;;;6.96;71.28;102572.88;4749113;29;20597;-54
2022/02/23 06:08:38;;;;;;;16.33;2.80;;;;;;;6.96;71.22;102572.88;4758441;29;20800;-53
2022/02/23 06:11:04;;;;;;;17.52;3.00;;;;;;;6.93;71.27;102568.44;4747526;29;20510;-54
2022/02/23 06:13:30;;;;;;;18.25;2.65;;;;;;;6.88;71.16;102561.22;4754011;29;20051;-54
2022/02/23 06:15:55;;;;;;;14.63;2.50;;;;;;;6.82;71.41;102572.13;4754281;29;20043;-51
2022/02/23 06:18:21;;;;;;;14.35;2.25;;;;;;;6.78;71.09;102572.75;4756301;29;20059;-53
2022/02/23 06:20:46;;;;;;;11.68;2.28;;;;;;;6.75;71.09;102569.13;4760303;29;20055;-55
2022/02/23 06:23:12;;;;;;;13.50;2.60;;;;;;;6.83;70.83;102566.13;4749876;29;20178;-55
2022/02/23 06:25:37;;;;;;;12.70;2.58;;;;;;;6.76;70.87;102573.50;4753206;29;21238;-51
2022/02/23 06:28:03;;;;;;;13.10;2.70;;;;;;;6.72;70.87;102575.00;4757353;29;20058;-51
2022/02/23 06:30:29;;;;;;;17.83;2.80;;;;;;;6.64;70.76;102573.69;4766554;29;20051;-54
2022/02/23 06:32:54;;;;;;;12.13;2.60;;;;;;;6.59;70.60;102574.25;4740278;29;20191;-51
2022/02/23 06:35:20;;;;;;;13.52;2.45;;;;;;;6.57;70.52;102568.97;4747975;29;20456;-54
2022/02/23 06:37:46;;;;;;;14.18;2.72;;;;;;;6.56;70.66;102576.66;4757839;29;20565;-52
2022/02/23 06:40:13;;;;;;;14.38;2.60;;;;;;;6.49;70.76;102576.31;4748773;29;20043;-53
2022/02/23 06:42:38;;;;;;;15.70;2.75;;;;;;;6.49;70.46;102580.59;4754410;29;20604;-52
2022/02/23 06:45:06;;;;;;;14.98;2.75;;;;;;;6.45;71.08;102571.78;4746804;29;20587;-52
2022/02/23 06:47:31;;;;;;;15.40;3.15;;;;;;;6.44;71.18;102577.75;4750569;29;20052;-51
2022/02/23 06:49:57;;;;;;;15.98;3.20;;;;;;;6.43;71.41;102585.44;4758748;29;20291;-50
2022/02/23 06:52:22;;;;;;;12.18;3.28;;;;;;;6.45;71.43;102583.81;4748437;29;20674;-55
2022/02/23 06:54:49;;;;;;;10.63;2.72;;;;;;;6.47;71.54;102579.59;4744374;29;20461;-54
2022/02/23 06:57:15;;;;;;;17.02;3.30;;;;;;;6.49;71.52;102575.41;4756812;29;21227;-54
2022/02/23 06:59:41;;;;;;;15.63;3.30;;;;;;;6.46;71.52;102573.53;4753601;29;20047;-54
2022/02/23 07:02:10;;;;;;;10.90;3.20;;;;;;;6.52;71.46;102565.25;4750024;29;20461;-54
2022/02/23 07:04:36;;;;;;;19.75;3.13;;;;;;;6.55;71.54;102569.69;4751465;29;20136;-54
2022/02/23 07:07:02;;;;;;;18.00;3.58;;;;;;;6.57;71.73;102565.50;4740945;29;20059;-50
2022/02/23 07:09:27;;;;;;;13.95;3.05;;;;;;;6.59;71.77;102567.34;4743387;29;20054;-54
2022/02/23 07:11:53;;;;;;;18.35;3.55;;;;;;;6.63;71.81;102577.09;4751138;29;20533;-54
2022/02/23 07:14:20;;;;;;;16.10;3.58;;;;;;;6.70;71.96;102575.75;4751521;29;21172;-50
2022/02/23 07:16:45;;;;;;;16.42;3.85;;;;;;;6.73;72.06;102578.50;4750367;29;20130;-54
2022/02/23 07:19:11;;;;;;;19.33;3.92;;;;;;;6.85;71.62;102576.59;4749531;29;20059;-53
2022/02/23 07:21:38;;;;;;;19.98;3.80;;;;;;;6.84;71.61;102579.97;4747838;29;20054;-53
2022/02/23 07:24:04;;;;;;;24.10;4.47;;;;;;;6.90;71.77;102575.13;4744587;29;20145;-54
2022/02/23 07:26:29;;;;;;;14.45;3.65;;;;;;;6.92;71.95;102579.59;4750730;29;20054;-53
2022/02/23 07:28:55;;;;;;;22.52;4.78;;;;;;;6.97;72.11;102579.84;4748409;29;20052;-59
2022/02/23 07:31:21;;;;;;;15.18;4.43;;;;;;;7.10;72.13;102584.91;4749084;29;20066;-53
2022/02/23 07:33:47;;;;;;;19.27;4.50;;;;;;;7.20;72.25;102579.41;4752207;29;20389;-51
2022/02/23 07:36:13;;;;;;;23.48;4.78;;;;;;;7.26;72.36;102582.31;4750650;29;20112;-54
2022/02/23 07:38:40;;;;;;;22.23;4.63;;;;;;;7.40;72.44;102588.25;4751741;29;20143;-54
2022/02/23 07:41:07;;;;;;;20.13;4.30;;;;;;;7.50;72.43;102582.72;4745346;29;20703;-52
2022/02/23 07:43:33;;;;;;;26.45;4.97;;;;;;;7.64;72.35;102591.25;4753905;29;20055;-53
2022/02/23 07:45:59;;;;;;;24.98;4.70;;;;;;;7.74;72.24;102594.41;4751075;29;20081;-51
2022/02/23 07:48:25;;;;;;;20.33;4.18;;;;;;;7.87;72.26;102590.72;4756494;29;20059;-53
2022/02/23 07:50:50;;;;;;;17.60;4.13;;;;;;;8.02;72.22;102588.03;4747981;29;20579;-51
2022/02/23 07:53:16;;;;;;;19.58;4.43;;;;;;;8.13;72.03;102595.56;4743964;29;20071;-53
2022/02/23 07:55:41;;;;;;;21.45;4.15;;;;;;;8.20;72.18;102591.56;4755186;29;20049;-55
2022/02/23 07:58:07;;;;;;;20.83;4.47;;;;;;;8.33;72.16;102590.50;4751550;29;20081;-54
2022/02/23 08:00:33;;;;;;;21.15;4.05;;;;;;;8.44;71.48;102592.81;4753499;29;20044;-56
2022/02/23 08:02:59;;;;;;;22.67;4.10;;;;;;;8.58;71.22;102603.91;4748784;29;21214;-51
2022/02/23 08:05:24;;;;;;;19.20;3.80;;;;;;;8.64;71.06;102598.09;4753406;29;20043;-54
2022/02/23 08:07:52;;;;;;;21.55;4.20;;;;;;;8.75;70.71;102597.81;4753876;29;20073;-55
2022/02/23 08:10:18;;;;;;;22.92;4.10;;;;;;;8.85;70.55;102593.91;4752005;29;20477;-52
2022/02/23 08:12:43;;;;;;;18.60;3.95;;;;;;;8.98;69.89;102598.00;4753608;29;20043;-53
2022/02/23 08:20:38;;;;;;;20.00;3.40;;;;;;;9.45;68.80;102576.78;4755422;29;20065;-51
2022/02/23 08:23:04;;;;;;;19.27;3.63;;;;;;;9.50;67.98;102585.69;4735592;29;20070;-51
2022/02/23 08:25:29;;;;;;;19.65;3.60;;;;;;;9.57;67.43;102578.22;4757244;29;20043;-54
2022/02/23 08:27:56;;;;;;;18.33;3.60;;;;;;;9.72;67.18;102575.38;4754649;29;20055;-53
2022/02/23 08:30:21;;;;;;;14.75;3.00;;;;;;;9.85;66.50;102571.59;4753720;29;20051;-54
2022/02/23 08:32:48;;;;;;;16.15;3.22;;;;;;;9.94;65.77;102580.69;4754050;29;20075;-54
2022/02/23 08:35:13;;;;;;;14.52;3.08;;;;;;;10.19;65.86;102574.84;4751380;29;20062;-52
2022/02/23 08:37:39;;;;;;;13.80;2.70;;;;;;;10.33;65.39;102568.50;4753341;29;20470;-54
2022/02/23 08:40:05;;;;;;;7.97;2.35;;;;;;;10.45;64.50;102573.31;4755040;29;20047;-49
2022/02/23 08:42:31;;;;;;;18.60;3.40;;;;;;;10.56;64.04;102572.94;4753762;29;20051;-54
2022/02/23 08:44:56;;;;;;;16.50;2.50;;;;;;;10.57;63.52;102573.81;4748673;29;20050;-50
2022/02/23 08:47:25;;;;;;;14.55;3.22;;;;;;;10.74;63.31;102574.47;4754401;29;20479;-53
2022/02/23 08:49:51;;;;;;;17.08;2.95;;;;;;;10.89;62.56;102573.38;4761464;29;20629;-50
2022/02/23 08:52:16;;;;;;;14.98;2.80;;;;;;;10.97;62.16;102579.81;4752858;29;20047;-53
2022/02/23 08:54:42;;;;;;;17.83;2.72;;;;;;;11.12;61.92;102568.16;4754225;29;20130;-53
2022/02/23 08:57:08;;;;;;;17.85;2.58;;;;;;;11.11;61.31;102580.31;4750299;29;20370;-52
2022/02/23 08:59:35;;;;;;;16.00;2.75;;;;;;;11.29;60.99;102583.63;4758740;29;20051;-54
2022/02/23 09:02:00;;;;;;;17.08;3.30;;;;;;;11.43;60.97;102578.91;4749011;29;20492;-55
2022/02/23 09:04:26;;;;;;;11.18;2.60;;;;;;;11.34;60.39;102576.84;4755801;29;20109;-53
2022/02/23 09:06:51;;;;;;;15.00;2.70;;;;;;;11.54;60.56;102574.06;4747017;29;20147;-50
2022/02/23 09:09:17;;;;;;;14.00;2.90;;;;;;;11.51;59.77;102573.97;4748939;29;20436;-55
2022/02/23 09:11:47;;;;;;;16.13;3.10;;;;;;;11.56;59.81;102562.88;4746524;29;20455;-56
2022/02/23 09:14:13;;;;;;;16.30;3.40;;;;;;;11.68;59.64;102562.41;4753426;29;20204;-55
2022/02/23 09:16:39;;;;;;;13.50;3.08;;;;;;;11.80;59.40;102578.56;4752969;29;20066;-54
2022/02/23 09:19:05;;;;;;;15.82;3.25;;;;;;;11.90;59.11;102567.59;4742997;29;20047;-55
2022/02/23 09:21:32;;;;;;;15.75;3.58;;;;;;;12.02;59.14;102569.72;4754357;29;20486;-53
2022/02/23 09:23:59;;;;;;;16.52;3.88;;;;;;;12.08;59.33;102570.81;4757604;29;20051;-54
2022/02/23 09:26:25;;;;;;;22.13;4.22;;;;;;;12.15;59.26;102574.53;4751896;29;20256;-56
2022/02/23 09:28:51;;;;;;;13.95;4.68;;;;;;;12.14;58.83;102578.88;4752404;29;20159;-54
2022/02/23 09:31:17;;;;;;;24.27;4.93;;;;;;;12.00;59.29;102569.69;4745291;29;20435;-51
2022/02/23 09:33:44;;;;;;;17.35;4.30;;;;;;;12.03;59.39;102576.75;4754668;29;20112;-54
2022/02/23 09:36:09;;;;;;;18.73;5.05;;;;;;;11.99;58.92;102575.75;4756495;29;20063;-54
2022/02/23 09:38:36;;;;;;;23.83;4.78;;;;;;;12.05;59.62;102582.91;4752265;29;20063;-55
2022/02/23 09:41:04;;;;;;;17.40;4.38;;;;;;;12.04;59.61;102578.53;4745082;29;20055;-53
2022/02/23 09:43:30;;;;;;;18.85;4.53;;;;;;;12.07;59.38;102579.53;4748963;29;20054;-55
2022/02/23 09:45:56;;;;;;;23.23;4.97;;;;;;;12.12;59.38;102577.06;4747943;29;20039;-52
2022/02/23 09:48:28;;;;;;;21.42;4.70;;;;;;;12.11;59.35;102580.50;4756007;29;20443;-54
2022/02/23 09:50:54;;;;;;;21.48;5.10;;;;;;;12.23;59.43;102580.03;4749277;29;20047;-51
2022/02/23 09:53:21;;;;;;;16.73;4.78;;;;;;;12.32;59.28;102575.13;4746738;29;20409;-50
2022/02/23 09:55:47;;;;;;;22.52;6.03;;;;;;;12.30;59.55;102580.31;4751842;29;20873;-54
2022/02/23 09:58:13;;;;;;;20.98;6.53;;;;;;;12.03;58.58;102580.25;4753751;29;20082;-56
2022/02/23 10:00:39;;;;;;;20.02;6.47;;;;;;;12.03;59.83;102579.34;4751643;29;20543;-54
2022/02/23 10:03:07;;;;;;;20.67;6.85;;;;;;;12.19;59.31;102573.84;4745472;29;20586;-53
2022/02/23 10:05:38;;;;;;;23.70;7.43;;;;;;;12.29;58.85;102575.00;4753618;29;20054;-50
2022/02/23 10:08:05;;;;;;;19.58;7.13;;;;;;;12.29;58.75;102575.00;4747923;29;20495;-53
2022/02/23 10:10:34;;;;;;;20.33;7.07;;;;;;;12.13;59.63;102565.78;4750851;29;20062;-55
2022/02/23 10:13:03;;;;;;;19.92;6.30;;;;;;;12.37;58.95;102565.72;4743546;29;20515;-53
2022/02/23 10:15:36;;;;;;;18.73;6.45;;;;;;;12.26;58.39;102572.31;4747083;29;20423;-55
2022/02/23 10:18:20;;;;;;;20.77;6.10;;;;;;;12.38;57.96;102575.34;4746222;29;20439;-53
2022/02/23 10:20:51;;;;;;;17.25;5.55;;;;;;;12.45;57.42;102580.78;4752734;29;20049;-54
2022/02/23 10:23:19;;;;;;;19.42;6.20;;;;;;;12.53;57.75;102581.06;4744524;29;20206;-54
2022/02/23 10:25:57;;;;;;;16.60;5.95;;;;;;;12.48;57.57;102574.78;4753748;29;20043;-54
2022/02/23 10:28:26;;;;;;;16.88;5.38;;;;;;;12.57;57.64;102582.91;4752944;29;20051;-52
2022/02/23 10:30:56;;;;;;;16.42;5.00;;;;;;;12.15;58.00;102577.16;4741974;29;20062;-55
2022/02/23 10:33:27;;;;;;;16.48;4.70;;;;;;;12.22;57.38;102571.31;4750049;29;20414;-54
2022/02/23 10:35:58;;;;;;;14.93;4.60;;;;;;;12.38;56.99;102567.50;4748017;29;20681;-55
2022/02/23 10:38:29;;;;;;;17.67;4.78;;;;;;;12.48;56.56;102575.69;4751191;29;21320;-54
2022/02/23 10:40:56;;;;;;;21.25;3.75;;;;;;;12.46;56.31;102576.44;4748082;29;20137;-53
2022/02/23 10:43:34;;;;;;;13.98;3.55;;;;;;;12.44;55.55;102571.16;4738448;29;20059;-52
2022/02/23 10:46:08;;;;;;;14.50;3.33;;;;;;;12.57;55.50;102577.69;4746315;29;20066;-54
2022/02/23 10:48:58;;;;;;;18.63;3.50;;;;;;;12.53;55.09;102573.19;4745376;29;20035;-53
2022/02/23 10:51:27;;;;;;;19.15;3.63;;;;;;;12.50;54.53;102570.50;4748731;29;20178;-56
2022/02/23 10:53:53;;;;;;;14.98;3.53;;;;;;;12.43;55.08;102558.94;4738361;29;20434;-53
2022/02/23 10:56:46;;;;;;;12.32;3.20;;;;;;;12.57;54.42;102565.50;4748109;29;20108;-52
2022/02/23 10:59:19;;;;;;;12.88;3.40;;;;;;;12.66;54.86;102564.91;4744605;29;20055;-54
2022/02/23 11:01:56;;;;;;;13.13;3.13;;;;;;;12.68;54.44;102562.34;4749111;29;20051;-54
2022/02/23 11:04:22;;;;;;;14.05;3.40;;;;;;;12.47;54.20;102560.81;4750545;29;20046;-51
2022/02/23 11:06:51;;;;;;;15.30;3.35;;;;;;;12.50;54.26;102560.03;4752742;29;20567;-53
2022/02/23 11:09:18;;;;;;;14.45;3.72;;;;;;;12.65;54.44;102549.16;4744751;29;20043;-58
2022/02/23 11:11:44;;;;;;;18.77;3.58;;;;;;;12.74;54.32;102552.06;4745439;29;20051;-54
2022/02/23 11:14:11;;;;;;;15.75;3.65;;;;;;;12.82;54.06;102547.94;4754031;29;20403;-55
2022/02/23 11:16:37;;;;;;;15.35;4.05;;;;;;;12.83;54.62;102561.09;4751632;29;20694;-55
2022/02/23 11:19:04;;;;;;;11.95;3.35;;;;;;;12.66;54.19;102554.44;4741981;29;20691;-53
2022/02/23 11:21:34;;;;;;;15.02;3.72;;;;;;;12.85;54.32;102555.91;4765105;29;20055;-56
2022/02/23 11:24:03;;;;;;;16.23;3.88;;;;;;;13.03;53.65;102548.63;4740319;29;20055;-53
2022/02/23 11:26:34;;;;;;;16.45;4.00;;;;;;;12.98;53.46;102548.47;4753647;29;20400;-54